sensor_id;sensor_type;location;lat;lon;timestamp;pressure;altitude;pressure_sealevel;temperature;humidity
6090;BME280;3073;42.660;23.316;2023-09-08T00:00:22;95044.69;;;25.99;70.36
6090;BME280;3073;42.660;23.316;2023-09-08T00:02:49;95032.16;;;25.05;73.71
6090;BME280;3073;42.660;23.316;2023-09-08T00:05:16;95043.56;;;25.30;73.81
6090;BME280;3073;42.660;23.316;2023-09-08T00:07:43;95036.91;;;25.70;72.25
6090;BME280;3073;42.660;23.316;2023-09-08T00:10:11;95032.03;;;25.01;75.16
6090;BME280;3073;42.660;23.316;2023-09-08T00:12:38;95037.53;;;25.38;74.59
6090;BME280;3073;42.660;23.316;2023-09-08T00:15:06;95026.44;;;25.41;73.79
6090;BME280;3073;42.660;23.316;2023-09-08T00:17:33;95033.28;;;24.78;72.78
6090;BME280;3073;42.660;23.316;2023-09-08T00:20:02;95031.75;;;25.24;70.25
6090;BME280;3073;42.660;23.316;2023-09-08T00:22:31;95020.03;;;25.00;67.35
6090;BME280;3073;42.660;23.316;2023-09-08T00:24:58;95028.38;;;25.23;66.75
6090;BME280;3073;42.660;23.316;2023-09-08T00:27:26;95016.75;;;24.57;69.01
6090;BME280;3073;42.660;23.316;2023-09-08T00:29:53;95016.34;;;25.01;67.23
6090;BME280;3073;42.660;23.316;2023-09-08T00:32:19;95021.31;;;24.77;66.74
6090;BME280;3073;42.660;23.316;2023-09-08T00:34:46;95015.22;;;24.56;66.15
6090;BME280;3073;42.660;23.316;2023-09-08T00:37:13;95030.03;;;24.98;64.17
6090;BME280;3073;42.660;23.316;2023-09-08T00:39:40;95022.94;;;24.99;64.81
6090;BME280;3073;42.660;23.316;2023-09-08T00:42:07;95013.09;;;25.63;61.92
6090;BME280;3073;42.660;23.316;2023-09-08T00:44:35;95012.00;;;26.05;59.61
6090;BME280;3073;42.660;23.316;2023-09-08T00:47:02;95017.53;;;25.92;61.10
6090;BME280;3073;42.660;23.316;2023-09-08T00:49:29;95019.88;;;26.05;61.00
6090;BME280;3073;42.660;23.316;2023-09-08T00:51:56;95014.63;;;26.05;60.93
6090;BME280;3073;42.660;23.316;2023-09-08T00:54:23;95004.19;;;25.64;61.83
6090;BME280;3073;42.660;23.316;2023-09-08T00:56:55;95011.78;;;26.19;60.60
6090;BME280;3073;42.660;23.316;2023-09-08T00:59:22;95009.34;;;26.35;59.84
6090;BME280;3073;42.660;23.316;2023-09-08T01:01:52;95012.88;;;26.18;59.82
6090;BME280;3073;42.660;23.316;2023-09-08T01:04:20;95005.84;;;25.89;60.93
6090;BME280;3073;42.660;23.316;2023-09-08T01:06:47;95017.50;;;26.12;60.73
6090;BME280;3073;42.660;23.316;2023-09-08T01:09:14;95004.84;;;25.82;60.90
6090;BME280;3073;42.660;23.316;2023-09-08T01:11:42;95015.00;;;26.16;59.67
6090;BME280;3073;42.660;23.316;2023-09-08T01:14:11;95014.41;;;25.98;59.90
6090;BME280;3073;42.660;23.316;2023-09-08T01:16:39;95006.81;;;25.85;59.68
6090;BME280;3073;42.660;23.316;2023-09-08T01:19:12;95014.13;;;25.50;60.75
6090;BME280;3073;42.660;23.316;2023-09-08T01:22:11;95012.41;;;25.25;62.05
6090;BME280;3073;42.660;23.316;2023-09-08T01:25:05;95014.81;;;25.30;61.81
6090;BME280;3073;42.660;23.316;2023-09-08T01:27:35;95015.03;;;25.95;60.63
6090;BME280;3073;42.660;23.316;2023-09-08T01:30:05;95005.19;;;25.51;61.08
6090;BME280;3073;42.660;23.316;2023-09-08T01:32:34;95012.69;;;25.61;61.03
6090;BME280;3073;42.660;23.316;2023-09-08T01:35:01;95004.28;;;25.18;62.92
6090;BME280;3073;42.660;23.316;2023-09-08T01:37:28;95009.03;;;25.16;63.43
6090;BME280;3073;42.660;23.316;2023-09-08T01:39:55;95002.75;;;25.17;63.95
6090;BME280;3073;42.660;23.316;2023-09-08T01:42:23;94998.88;;;24.76;66.14
6090;BME280;3073;42.660;23.316;2023-09-08T01:44:50;94999.81;;;24.80;66.32
6090;BME280;3073;42.660;23.316;2023-09-08T01:47:18;94991.88;;;25.06;65.40
6090;BME280;3073;42.660;23.316;2023-09-08T01:49:45;94993.03;;;25.46;64.72
6090;BME280;3073;42.660;23.316;2023-09-08T01:52:12;95000.69;;;25.60;63.53
6090;BME280;3073;42.660;23.316;2023-09-08T01:54:38;95003.00;;;25.62;63.14
6090;BME280;3073;42.660;23.316;2023-09-08T01:57:05;94997.59;;;24.99;65.22
6090;BME280;3073;42.660;23.316;2023-09-08T01:59:33;94997.44;;;25.04;65.64
6090;BME280;3073;42.660;23.316;2023-09-08T02:02:02;95000.47;;;25.15;65.70
6090;BME280;3073;42.660;23.316;2023-09-08T02:04:29;95000.03;;;25.63;64.60
6090;BME280;3073;42.660;23.316;2023-09-08T02:06:56;94997.50;;;25.46;65.87
6090;BME280;3073;42.660;23.316;2023-09-08T02:09:30;95002.66;;;25.34;67.39
6090;BME280;3073;42.660;23.316;2023-09-08T02:11:57;94996.28;;;24.76;68.92
6090;BME280;3073;42.660;23.316;2023-09-08T02:14:24;94991.38;;;25.13;68.40
6090;BME280;3073;42.660;23.316;2023-09-08T02:16:52;94993.50;;;24.90;69.48
6090;BME280;3073;42.660;23.316;2023-09-08T02:19:19;94984.81;;;24.60;71.43
6090;BME280;3073;42.660;23.316;2023-09-08T02:21:46;94984.53;;;24.99;70.21
6090;BME280;3073;42.660;23.316;2023-09-08T02:24:13;94987.50;;;25.48;68.88
6090;BME280;3073;42.660;23.316;2023-09-08T02:26:40;94983.19;;;25.52;68.52
6090;BME280;3073;42.660;23.316;2023-09-08T02:29:07;94984.31;;;25.72;68.38
6090;BME280;3073;42.660;23.316;2023-09-08T02:31:34;94985.63;;;25.28;69.69
6090;BME280;3073;42.660;23.316;2023-09-08T02:34:02;94980.94;;;25.42;70.28
6090;BME280;3073;42.660;23.316;2023-09-08T02:36:29;94977.31;;;25.96;68.38
6090;BME280;3073;42.660;23.316;2023-09-08T02:38:56;94976.06;;;25.61;69.02
6090;BME280;3073;42.660;23.316;2023-09-08T02:41:23;94976.50;;;25.84;69.27
6090;BME280;3073;42.660;23.316;2023-09-08T02:43:50;94970.47;;;25.71;69.76
6090;BME280;3073;42.660;23.316;2023-09-08T02:46:17;94973.34;;;25.49;71.00
6090;BME280;3073;42.660;23.316;2023-09-08T02:48:44;94973.78;;;25.30;72.88
6090;BME280;3073;42.660;23.316;2023-09-08T02:51:12;94976.25;;;25.27;74.64
6090;BME280;3073;42.660;23.316;2023-09-08T02:53:39;94976.69;;;25.29;74.13
6090;BME280;3073;42.660;23.316;2023-09-08T02:56:06;94973.13;;;25.42;74.52
6090;BME280;3073;42.660;23.316;2023-09-08T02:58:34;94972.09;;;24.50;79.24
6090;BME280;3073;42.660;23.316;2023-09-08T03:01:09;94974.78;;;24.88;78.26
6090;BME280;3073;42.660;23.316;2023-09-08T03:03:37;94975.09;;;25.16;77.13
6090;BME280;3073;42.660;23.316;2023-09-08T03:06:04;94977.25;;;24.84;79.21
6090;BME280;3073;42.660;23.316;2023-09-08T03:08:32;94972.63;;;24.73;79.91
6090;BME280;3073;42.660;23.316;2023-09-08T03:10:59;94979.72;;;25.10;78.71
6090;BME280;3073;42.660;23.316;2023-09-08T03:13:26;94969.78;;;25.03;80.26
6090;BME280;3073;42.660;23.316;2023-09-08T03:15:55;94973.56;;;25.15;79.14
6090;BME280;3073;42.660;23.316;2023-09-08T03:18:22;94968.88;;;25.29;78.24
6090;BME280;3073;42.660;23.316;2023-09-08T03:20:49;94974.09;;;24.99;80.72
6090;BME280;3073;42.660;23.316;2023-09-08T03:23:16;94970.41;;;25.00;80.45
6090;BME280;3073;42.660;23.316;2023-09-08T03:25:45;94974.63;;;24.84;81.57
6090;BME280;3073;42.660;23.316;2023-09-08T03:28:12;94973.94;;;24.49;84.52
6090;BME280;3073;42.660;23.316;2023-09-08T03:30:38;94973.75;;;24.63;84.48
6090;BME280;3073;42.660;23.316;2023-09-08T03:33:05;94973.50;;;24.39;86.35
6090;BME280;3073;42.660;23.316;2023-09-08T03:35:32;94979.81;;;24.38;85.87
6090;BME280;3073;42.660;23.316;2023-09-08T03:37:59;94980.91;;;23.85;90.79
6090;BME280;3073;42.660;23.316;2023-09-08T03:40:26;94982.13;;;23.79;92.05
6090;BME280;3073;42.660;23.316;2023-09-08T03:42:54;94984.59;;;23.84;93.05
6090;BME280;3073;42.660;23.316;2023-09-08T03:45:21;94990.28;;;23.95;90.99
6090;BME280;3073;42.660;23.316;2023-09-08T03:47:47;94981.44;;;24.68;87.75
6090;BME280;3073;42.660;23.316;2023-09-08T03:50:14;94985.06;;;24.84;85.96
6090;BME280;3073;42.660;23.316;2023-09-08T03:52:41;94982.69;;;25.08;84.73
6090;BME280;3073;42.660;23.316;2023-09-08T03:55:08;94980.84;;;24.45;88.25
6090;BME280;3073;42.660;23.316;2023-09-08T03:57:35;94983.25;;;24.68;87.26
6090;BME280;3073;42.660;23.316;2023-09-08T04:00:04;94989.03;;;24.09;90.96
6090;BME280;3073;42.660;23.316;2023-09-08T04:02:32;94992.56;;;24.31;88.67
6090;BME280;3073;42.660;23.316;2023-09-08T04:04:59;94991.22;;;24.88;85.70
6090;BME280;3073;42.660;23.316;2023-09-08T04:07:26;94992.56;;;24.31;86.56
6090;BME280;3073;42.660;23.316;2023-09-08T04:09:52;94988.63;;;24.71;84.98
6090;BME280;3073;42.660;23.316;2023-09-08T04:12:19;94985.22;;;24.24;86.67
6090;BME280;3073;42.660;23.316;2023-09-08T04:14:48;94989.94;;;23.62;90.09
6090;BME280;3073;42.660;23.316;2023-09-08T04:17:17;94985.91;;;23.30;91.65
6090;BME280;3073;42.660;23.316;2023-09-08T04:19:44;94990.59;;;23.68;92.02
6090;BME280;3073;42.660;23.316;2023-09-08T04:22:11;94988.41;;;23.70;92.17
6090;BME280;3073;42.660;23.316;2023-09-08T04:24:38;94987.94;;;24.02;89.35
6090;BME280;3073;42.660;23.316;2023-09-08T04:27:05;94986.44;;;23.84;90.67
6090;BME280;3073;42.660;23.316;2023-09-08T04:29:34;94995.03;;;23.67;92.69
6090;BME280;3073;42.660;23.316;2023-09-08T04:32:01;94994.09;;;23.80;92.06
6090;BME280;3073;42.660;23.316;2023-09-08T04:34:36;94992.22;;;24.58;88.03
6090;BME280;3073;42.660;23.316;2023-09-08T04:37:03;94994.28;;;24.73;86.86
6090;BME280;3073;42.660;23.316;2023-09-08T04:39:31;94994.56;;;24.89;85.88
6090;BME280;3073;42.660;23.316;2023-09-08T04:41:57;95001.31;;;24.98;84.90
6090;BME280;3073;42.660;23.316;2023-09-08T04:44:24;95002.66;;;25.34;83.99
6090;BME280;3073;42.660;23.316;2023-09-08T04:46:51;95003.06;;;25.44;82.93
6090;BME280;3073;42.660;23.316;2023-09-08T04:49:19;94997.88;;;25.65;81.71
6090;BME280;3073;42.660;23.316;2023-09-08T04:51:47;94989.16;;;25.82;80.79
6090;BME280;3073;42.660;23.316;2023-09-08T04:54:14;94995.28;;;25.65;80.49
6090;BME280;3073;42.660;23.316;2023-09-08T04:56:40;94990.47;;;25.67;80.28
6090;BME280;3073;42.660;23.316;2023-09-08T04:59:07;94997.88;;;26.27;77.54
6090;BME280;3073;42.660;23.316;2023-09-08T05:01:34;94996.53;;;26.54;76.01
6090;BME280;3073;42.660;23.316;2023-09-08T05:04:03;95002.16;;;26.11;76.69
6090;BME280;3073;42.660;23.316;2023-09-08T05:06:30;95001.94;;;27.06;72.47
6090;BME280;3073;42.660;23.316;2023-09-08T05:08:59;95004.03;;;27.49;69.27
6090;BME280;3073;42.660;23.316;2023-09-08T05:11:26;95002.25;;;27.77;67.95
6090;BME280;3073;42.660;23.316;2023-09-08T05:13:53;94998.19;;;27.80;67.12
6090;BME280;3073;42.660;23.316;2023-09-08T05:16:20;94997.25;;;28.12;66.27
6090;BME280;3073;42.660;23.316;2023-09-08T05:19:01;95001.72;;;27.99;65.24
6090;BME280;3073;42.660;23.316;2023-09-08T05:21:28;95001.06;;;28.58;63.23
6090;BME280;3073;42.660;23.316;2023-09-08T05:23:55;95001.94;;;28.62;61.51
6090;BME280;3073;42.660;23.316;2023-09-08T05:26:23;94999.59;;;29.35;59.18
6090;BME280;3073;42.660;23.316;2023-09-08T05:28:50;95000.53;;;29.11;58.50
6090;BME280;3073;42.660;23.316;2023-09-08T05:31:17;95010.13;;;28.60;57.40
6090;BME280;3073;42.660;23.316;2023-09-08T05:33:44;95004.69;;;28.81;57.51
6090;BME280;3073;42.660;23.316;2023-09-08T05:36:10;95004.91;;;29.23;56.35
6090;BME280;3073;42.660;23.316;2023-09-08T05:38:37;95011.06;;;29.62;55.86
6090;BME280;3073;42.660;23.316;2023-09-08T05:41:04;95005.09;;;29.30;55.15
6090;BME280;3073;42.660;23.316;2023-09-08T05:43:32;95004.66;;;28.97;55.94
6090;BME280;3073;42.660;23.316;2023-09-08T05:45:59;95006.19;;;29.13;55.13
6090;BME280;3073;42.660;23.316;2023-09-08T05:48:26;95010.91;;;27.29;58.70
6090;BME280;3073;42.660;23.316;2023-09-08T05:50:53;95013.28;;;28.66;56.40
6090;BME280;3073;42.660;23.316;2023-09-08T05:53:19;95017.91;;;29.32;54.20
6090;BME280;3073;42.660;23.316;2023-09-08T05:55:46;95007.81;;;27.76;54.33
6090;BME280;3073;42.660;23.316;2023-09-08T05:58:13;95016.63;;;28.35;54.04
6090;BME280;3073;42.660;23.316;2023-09-08T06:00:41;95014.53;;;28.01;54.15
6090;BME280;3073;42.660;23.316;2023-09-08T06:03:08;95016.06;;;28.02;54.65
6090;BME280;3073;42.660;23.316;2023-09-08T06:05:35;95023.41;;;29.11;51.86
6090;BME280;3073;42.660;23.316;2023-09-08T06:08:02;95019.75;;;29.47;51.04
6090;BME280;3073;42.660;23.316;2023-09-08T06:10:28;95019.88;;;28.04;52.68
6090;BME280;3073;42.660;23.316;2023-09-08T06:12:56;95020.63;;;28.60;52.04
6090;BME280;3073;42.660;23.316;2023-09-08T06:15:23;95025.56;;;28.19;52.62
6090;BME280;3073;42.660;23.316;2023-09-08T06:17:51;95022.66;;;28.24;52.95
6090;BME280;3073;42.660;23.316;2023-09-08T06:20:18;95017.34;;;28.63;51.08
6090;BME280;3073;42.660;23.316;2023-09-08T06:22:44;95019.25;;;28.35;52.10
6090;BME280;3073;42.660;23.316;2023-09-08T06:25:12;95020.75;;;28.80;51.13
6090;BME280;3073;42.660;23.316;2023-09-08T06:27:40;95020.31;;;29.56;49.32
6090;BME280;3073;42.660;23.316;2023-09-08T06:30:08;95028.84;;;29.84;47.89
6090;BME280;3073;42.660;23.316;2023-09-08T06:32:35;95041.53;;;29.47;46.68
6090;BME280;3073;42.660;23.316;2023-09-08T06:35:03;95031.44;;;28.43;48.06
6090;BME280;3073;42.660;23.316;2023-09-08T06:37:35;95044.28;;;28.60;47.80
6090;BME280;3073;42.660;23.316;2023-09-08T06:40:02;95033.66;;;28.41;48.08
6090;BME280;3073;42.660;23.316;2023-09-08T06:42:29;95041.25;;;29.68;46.87
6090;BME280;3073;42.660;23.316;2023-09-08T06:44:56;95040.91;;;29.85;44.80
6090;BME280;3073;42.660;23.316;2023-09-08T06:47:23;95051.78;;;30.03;43.68
6090;BME280;3073;42.660;23.316;2023-09-08T06:49:50;95033.31;;;29.18;44.63
6090;BME280;3073;42.660;23.316;2023-09-08T06:52:18;95042.91;;;29.26;45.17
6090;BME280;3073;42.660;23.316;2023-09-08T06:54:45;95042.22;;;30.14;42.73
6090;BME280;3073;42.660;23.316;2023-09-08T06:57:12;95048.69;;;29.82;43.57
6090;BME280;3073;42.660;23.316;2023-09-08T06:59:39;95042.06;;;29.06;43.80
6090;BME280;3073;42.660;23.316;2023-09-08T07:02:07;95047.72;;;30.44;43.26
6090;BME280;3073;42.660;23.316;2023-09-08T07:04:34;95044.31;;;30.43;42.38
6090;BME280;3073;42.660;23.316;2023-09-08T07:07:00;95043.41;;;29.97;42.21
6090;BME280;3073;42.660;23.316;2023-09-08T07:09:30;95045.56;;;29.92;42.32
6090;BME280;3073;42.660;23.316;2023-09-08T07:11:57;95041.97;;;30.57;41.51
6090;BME280;3073;42.660;23.316;2023-09-08T07:14:25;95044.94;;;31.21;41.06
6090;BME280;3073;42.660;23.316;2023-09-08T07:16:53;95048.88;;;30.66;40.69
6090;BME280;3073;42.660;23.316;2023-09-08T07:19:21;95046.06;;;30.97;40.43
6090;BME280;3073;42.660;23.316;2023-09-08T07:21:48;95037.38;;;31.19;39.63
6090;BME280;3073;42.660;23.316;2023-09-08T07:24:17;95037.00;;;31.99;38.87
6090;BME280;3073;42.660;23.316;2023-09-08T07:26:45;95032.53;;;32.03;39.00
6090;BME280;3073;42.660;23.316;2023-09-08T07:29:12;95035.59;;;32.35;37.95
6090;BME280;3073;42.660;23.316;2023-09-08T07:31:39;95035.94;;;32.34;38.11
6090;BME280;3073;42.660;23.316;2023-09-08T07:34:06;95041.41;;;32.51;38.03
6090;BME280;3073;42.660;23.316;2023-09-08T07:36:33;95023.41;;;32.60;37.17
6090;BME280;3073;42.660;23.316;2023-09-08T07:39:00;95034.47;;;32.40;38.35
6090;BME280;3073;42.660;23.316;2023-09-08T07:41:27;95034.38;;;31.99;38.40
6090;BME280;3073;42.660;23.316;2023-09-08T07:43:55;95031.75;;;32.66;37.33
6090;BME280;3073;42.660;23.316;2023-09-08T07:46:22;95026.91;;;32.35;38.10
6090;BME280;3073;42.660;23.316;2023-09-08T07:48:49;95032.66;;;31.05;38.99
6090;BME280;3073;42.660;23.316;2023-09-08T07:51:16;95030.59;;;32.30;37.95
6090;BME280;3073;42.660;23.316;2023-09-08T07:53:43;95028.41;;;32.73;37.38
6090;BME280;3073;42.660;23.316;2023-09-08T07:56:10;95029.78;;;32.96;36.98
6090;BME280;3073;42.660;23.316;2023-09-08T07:58:37;95035.41;;;33.35;36.59
6090;BME280;3073;42.660;23.316;2023-09-08T08:01:06;95036.03;;;33.69;36.44
6090;BME280;3073;42.660;23.316;2023-09-08T08:03:33;95032.56;;;33.10;36.14
6090;BME280;3073;42.660;23.316;2023-09-08T08:06:01;95026.88;;;32.68;36.95
6090;BME280;3073;42.660;23.316;2023-09-08T08:08:27;95028.50;;;33.24;36.97
6090;BME280;3073;42.660;23.316;2023-09-08T08:10:54;95027.81;;;31.60;38.39
6090;BME280;3073;42.660;23.316;2023-09-08T08:13:22;95020.88;;;31.75;38.31
6090;BME280;3073;42.660;23.316;2023-09-08T08:15:49;95015.53;;;31.71;38.31
6090;BME280;3073;42.660;23.316;2023-09-08T08:18:17;95017.34;;;32.60;38.00
6090;BME280;3073;42.660;23.316;2023-09-08T08:20:44;95030.13;;;33.35;35.82
6090;BME280;3073;42.660;23.316;2023-09-08T08:23:11;95021.28;;;32.40;37.43
6090;BME280;3073;42.660;23.316;2023-09-08T08:25:38;95024.75;;;30.86;37.94
6090;BME280;3073;42.660;23.316;2023-09-08T08:28:05;95014.88;;;31.25;38.44
6090;BME280;3073;42.660;23.316;2023-09-08T08:30:31;95026.44;;;31.70;37.56
6090;BME280;3073;42.660;23.316;2023-09-08T08:32:59;95026.19;;;31.78;37.37
6090;BME280;3073;42.660;23.316;2023-09-08T08:35:27;95016.53;;;32.56;36.78
6090;BME280;3073;42.660;23.316;2023-09-08T08:37:54;95006.81;;;31.97;36.84
6090;BME280;3073;42.660;23.316;2023-09-08T08:40:20;95012.03;;;33.44;35.43
6090;BME280;3073;42.660;23.316;2023-09-08T08:42:54;95011.50;;;32.81;35.50
6090;BME280;3073;42.660;23.316;2023-09-08T08:45:23;94997.53;;;31.80;35.97
6090;BME280;3073;42.660;23.316;2023-09-08T08:47:51;95000.50;;;32.38;35.06
6090;BME280;3073;42.660;23.316;2023-09-08T08:50:18;94993.94;;;32.58;35.13
6090;BME280;3073;42.660;23.316;2023-09-08T08:52:47;95010.34;;;33.19;35.48
6090;BME280;3073;42.660;23.316;2023-09-08T08:55:14;95003.25;;;33.98;34.31
6090;BME280;3073;42.660;23.316;2023-09-08T08:57:41;95005.09;;;33.26;34.55
6090;BME280;3073;42.660;23.316;2023-09-08T09:00:10;95007.03;;;32.85;34.95
6090;BME280;3073;42.660;23.316;2023-09-08T09:02:39;94996.00;;;32.39;35.25
6090;BME280;3073;42.660;23.316;2023-09-08T09:05:16;95007.38;;;30.82;37.20
6090;BME280;3073;42.660;23.316;2023-09-08T09:07:44;94996.53;;;32.55;35.62
6090;BME280;3073;42.660;23.316;2023-09-08T09:10:14;95002.03;;;31.24;37.31
6090;BME280;3073;42.660;23.316;2023-09-08T09:12:41;94985.19;;;30.02;38.89
6090;BME280;3073;42.660;23.316;2023-09-08T09:15:09;95014.59;;;30.43;38.15
6090;BME280;3073;42.660;23.316;2023-09-08T09:17:36;95007.28;;;31.24;37.49
6090;BME280;3073;42.660;23.316;2023-09-08T09:20:13;94998.72;;;32.12;36.37
6090;BME280;3073;42.660;23.316;2023-09-08T09:22:43;95009.72;;;31.88;36.17
6090;BME280;3073;42.660;23.316;2023-09-08T09:25:14;95013.56;;;30.93;37.66
6090;BME280;3073;42.660;23.316;2023-09-08T09:27:50;94997.00;;;31.97;36.25
6090;BME280;3073;42.660;23.316;2023-09-08T09:30:17;94993.13;;;30.63;38.18
6090;BME280;3073;42.660;23.316;2023-09-08T09:32:44;94991.25;;;31.88;36.64
6090;BME280;3073;42.660;23.316;2023-09-08T09:35:11;94999.16;;;31.32;36.37
6090;BME280;3073;42.660;23.316;2023-09-08T09:37:40;94991.34;;;31.95;36.42
6090;BME280;3073;42.660;23.316;2023-09-08T09:40:08;95008.38;;;31.19;37.38
6090;BME280;3073;42.660;23.316;2023-09-08T09:42:39;94994.47;;;32.04;36.07
6090;BME280;3073;42.660;23.316;2023-09-08T09:45:07;94988.84;;;31.80;36.33
6090;BME280;3073;42.660;23.316;2023-09-08T09:47:35;94985.03;;;32.77;35.40
6090;BME280;3073;42.660;23.316;2023-09-08T09:50:03;94975.44;;;31.92;36.47
6090;BME280;3073;42.660;23.316;2023-09-08T09:52:30;94968.72;;;31.12;37.59
6090;BME280;3073;42.660;23.316;2023-09-08T09:54:58;94981.28;;;32.04;37.09
6090;BME280;3073;42.660;23.316;2023-09-08T09:57:25;94991.59;;;32.53;35.69
6090;BME280;3073;42.660;23.316;2023-09-08T09:59:53;94990.16;;;32.59;35.92
6090;BME280;3073;42.660;23.316;2023-09-08T10:02:21;94973.00;;;32.09;36.33
6090;BME280;3073;42.660;23.316;2023-09-08T10:04:50;94983.22;;;31.81;36.89
6090;BME280;3073;42.660;23.316;2023-09-08T10:07:17;94971.00;;;30.68;38.08
6090;BME280;3073;42.660;23.316;2023-09-08T10:09:44;94974.53;;;32.10;36.35
6090;BME280;3073;42.660;23.316;2023-09-08T10:12:13;94974.28;;;33.58;35.29
6090;BME280;3073;42.660;23.316;2023-09-08T10:14:42;94968.31;;;33.72;35.30
6090;BME280;3073;42.660;23.316;2023-09-08T10:17:15;94989.41;;;33.06;34.11
6090;BME280;3073;42.660;23.316;2023-09-08T10:19:44;94965.00;;;32.39;35.53
6090;BME280;3073;42.660;23.316;2023-09-08T10:22:20;94966.28;;;32.96;35.92
6090;BME280;3073;42.660;23.316;2023-09-08T10:24:50;94958.31;;;33.44;35.27
6090;BME280;3073;42.660;23.316;2023-09-08T10:27:20;94952.34;;;33.03;35.59
6090;BME280;3073;42.660;23.316;2023-09-08T10:29:49;94960.38;;;33.72;34.91
6090;BME280;3073;42.660;23.316;2023-09-08T10:32:18;94948.72;;;33.18;35.00
6090;BME280;3073;42.660;23.316;2023-09-08T10:34:47;94950.88;;;33.05;35.17
6090;BME280;3073;42.660;23.316;2023-09-08T10:37:19;94957.50;;;33.29;34.78
6090;BME280;3073;42.660;23.316;2023-09-08T10:39:46;94957.41;;;32.31;36.38
6090;BME280;3073;42.660;23.316;2023-09-08T10:42:20;94953.91;;;31.90;37.24
6090;BME280;3073;42.660;23.316;2023-09-08T10:44:56;94952.47;;;31.66;37.86
6090;BME280;3073;42.660;23.316;2023-09-08T10:47:25;94949.09;;;31.66;37.95
6090;BME280;3073;42.660;23.316;2023-09-08T10:49:52;94950.91;;;33.09;36.50
6090;BME280;3073;42.660;23.316;2023-09-08T10:52:23;94961.44;;;34.64;34.53
6090;BME280;3073;42.660;23.316;2023-09-08T10:54:51;94952.72;;;35.17;34.19
6090;BME280;3073;42.660;23.316;2023-09-08T10:57:20;94956.09;;;35.42;33.44
6090;BME280;3073;42.660;23.316;2023-09-08T10:59:51;94943.16;;;34.17;34.82
6090;BME280;3073;42.660;23.316;2023-09-08T11:02:35;94951.50;;;34.19;35.07
6090;BME280;3073;42.660;23.316;2023-09-08T11:05:06;94946.13;;;32.78;35.59
6090;BME280;3073;42.660;23.316;2023-09-08T11:07:33;94949.75;;;33.61;35.62
6090;BME280;3073;42.660;23.316;2023-09-08T11:10:00;94940.06;;;33.25;35.50
6090;BME280;3073;42.660;23.316;2023-09-08T11:12:27;94940.50;;;32.83;36.68
6090;BME280;3073;42.660;23.316;2023-09-08T11:14:54;94942.53;;;33.03;36.61
6090;BME280;3073;42.660;23.316;2023-09-08T11:17:25;94937.41;;;32.33;37.19
6090;BME280;3073;42.660;23.316;2023-09-08T11:19:54;94932.81;;;32.27;37.90
6090;BME280;3073;42.660;23.316;2023-09-08T11:22:22;94937.44;;;32.77;36.88
6090;BME280;3073;42.660;23.316;2023-09-08T11:24:50;94930.19;;;32.67;37.35
6090;BME280;3073;42.660;23.316;2023-09-08T11:27:18;94926.75;;;31.89;38.08
6090;BME280;3073;42.660;23.316;2023-09-08T11:29:45;94934.66;;;31.89;38.21
6090;BME280;3073;42.660;23.316;2023-09-08T11:32:12;94932.44;;;32.65;37.34
6090;BME280;3073;42.660;23.316;2023-09-08T11:34:39;94930.63;;;31.99;37.89
6090;BME280;3073;42.660;23.316;2023-09-08T11:37:09;94925.31;;;32.29;37.85
6090;BME280;3073;42.660;23.316;2023-09-08T11:39:38;94928.72;;;32.29;38.21
6090;BME280;3073;42.660;23.316;2023-09-08T11:42:06;94933.06;;;32.51;37.94
6090;BME280;3073;42.660;23.316;2023-09-08T11:44:35;94923.28;;;33.06;37.34
6090;BME280;3073;42.660;23.316;2023-09-08T11:47:03;94925.44;;;33.45;35.92
6090;BME280;3073;42.660;23.316;2023-09-08T11:49:34;94918.97;;;34.57;35.52
6090;BME280;3073;42.660;23.316;2023-09-08T11:52:01;94907.22;;;33.33;35.99
6090;BME280;3073;42.660;23.316;2023-09-08T11:54:31;94912.75;;;33.82;35.63
6090;BME280;3073;42.660;23.316;2023-09-08T11:56:58;94914.75;;;34.13;35.26
6090;BME280;3073;42.660;23.316;2023-09-08T11:59:26;94915.53;;;34.25;35.31
6090;BME280;3073;42.660;23.316;2023-09-08T12:01:55;94908.56;;;33.78;35.10
6090;BME280;3073;42.660;23.316;2023-09-08T12:04:22;94902.22;;;34.03;35.76
6090;BME280;3073;42.660;23.316;2023-09-08T12:06:50;94901.63;;;33.45;35.52
6090;BME280;3073;42.660;23.316;2023-09-08T12:09:17;94903.81;;;34.54;34.98
6090;BME280;3073;42.660;23.316;2023-09-08T12:11:46;94906.50;;;34.89;34.14
6090;BME280;3073;42.660;23.316;2023-09-08T12:14:14;94900.59;;;33.71;35.50
6090;BME280;3073;42.660;23.316;2023-09-08T12:16:42;94909.50;;;34.91;34.17
6090;BME280;3073;42.660;23.316;2023-09-08T12:19:28;94910.69;;;33.44;35.02
6090;BME280;3073;42.660;23.316;2023-09-08T12:21:56;94902.59;;;33.98;35.13
6090;BME280;3073;42.660;23.316;2023-09-08T12:24:48;94894.38;;;34.85;33.60
6090;BME280;3073;42.660;23.316;2023-09-08T12:27:17;94902.28;;;34.18;34.23
6090;BME280;3073;42.660;23.316;2023-09-08T12:29:58;94886.06;;;33.36;35.05
6090;BME280;3073;42.660;23.316;2023-09-08T12:32:26;94886.00;;;34.30;33.83
6090;BME280;3073;42.660;23.316;2023-09-08T12:34:55;94889.78;;;34.46;33.48
6090;BME280;3073;42.660;23.316;2023-09-08T12:37:22;94877.59;;;34.03;34.00
6090;BME280;3073;42.660;23.316;2023-09-08T12:39:50;94866.72;;;34.61;33.90
6090;BME280;3073;42.660;23.316;2023-09-08T12:42:19;94873.13;;;34.95;32.82
6090;BME280;3073;42.660;23.316;2023-09-08T12:44:46;94863.22;;;34.00;33.34
6090;BME280;3073;42.660;23.316;2023-09-08T12:47:13;94863.19;;;33.72;34.39
6090;BME280;3073;42.660;23.316;2023-09-08T12:49:40;94867.44;;;34.86;33.78
6090;BME280;3073;42.660;23.316;2023-09-08T12:52:06;94875.31;;;35.43;32.60
6090;BME280;3073;42.660;23.316;2023-09-08T12:54:34;94877.13;;;36.33;31.77
6090;BME280;3073;42.660;23.316;2023-09-08T12:57:01;94868.97;;;36.02;31.72
6090;BME280;3073;42.660;23.316;2023-09-08T12:59:29;94881.47;;;34.55;33.36
6090;BME280;3073;42.660;23.316;2023-09-08T13:01:56;94867.88;;;36.48;31.08
6090;BME280;3073;42.660;23.316;2023-09-08T13:04:23;94863.47;;;35.54;32.00
6090;BME280;3073;42.660;23.316;2023-09-08T13:06:50;94858.53;;;36.33;31.10
6090;BME280;3073;42.660;23.316;2023-09-08T13:09:17;94867.41;;;36.05;31.20
6090;BME280;3073;42.660;23.316;2023-09-08T13:11:44;94863.66;;;34.91;32.54
6090;BME280;3073;42.660;23.316;2023-09-08T13:14:11;94863.16;;;32.96;35.17